sensor_id;sensor_type;location;lat;lon;timestamp;P1;durP1;ratioP1;P2;durP2;ratioP2
5153;SDS011;2595;53.584;10.084;2022-09-17T00:00:36;18.20;;;3.40;;
5153;SDS011;2595;53.584;10.084;2022-09-17T00:03:02;10.23;;;3.03;;
5153;SDS011;2595;53.584;10.084;2022-09-17T00:05:28;13.47;;;3.33;;
5153;SDS011;2595;53.584;10.084;2022-09-17T00:07:53;18.43;;;5.03;;
5153;SDS011;2595;53.584;10.084;2022-09-17T00:10:19;11.30;;;3.40;;
5153;SDS011;2595;53.584;10.084;2022-09-17T00:12:47;17.33;;;3.40;;
5153;SDS011;2595;53.584;10.084;2022-09-17T00:15:13;11.33;;;3.40;;
5153;SDS011;2595;53.584;10.084;2022-09-17T00:17:39;10.70;;;3.13;;
5153;SDS011;2595;53.584;10.084;2022-09-17T00:20:06;28.00;;;4.23;;
5153;SDS011;2595;53.584;10.084;2022-09-17T00:22:35;16.20;;;3.27;;
5153;SDS011;2595;53.584;10.084;2022-09-17T00:25:02;16.03;;;3.70;;
5153;SDS011;2595;53.584;10.084;2022-09-17T00:27:28;13.60;;;3.60;;
5153;SDS011;2595;53.584;10.084;2022-09-17T00:29:53;10.53;;;2.43;;
5153;SDS011;2595;53.584;10.084;2022-09-17T00:32:19;18.03;;;3.97;;
5153;SDS011;2595;53.584;10.084;2022-09-17T00:34:45;19.70;;;5.27;;
5153;SDS011;2595;53.584;10.084;2022-09-17T00:37:13;14.77;;;4.37;;
5153;SDS011;2595;53.584;10.084;2022-09-17T00:39:38;15.27;;;4.13;;
5153;SDS011;2595;53.584;10.084;2022-09-17T00:42:05;13.43;;;3.43;;
5153;SDS011;2595;53.584;10.084;2022-09-17T00:44:38;9.53;;;2.73;;
5153;SDS011;2595;53.584;10.084;2022-09-17T00:47:23;6.07;;;3.20;;
5153;SDS011;2595;53.584;10.084;2022-09-17T00:50:11;24.77;;;4.63;;
5153;SDS011;2595;53.584;10.084;2022-09-17T00:52:46;13.47;;;3.13;;
5153;SDS011;2595;53.584;10.084;2022-09-17T00:55:20;21.13;;;4.27;;
5153;SDS011;2595;53.584;10.084;2022-09-17T00:57:53;17.47;;;3.20;;
5153;SDS011;2595;53.584;10.084;2022-09-17T01:00:21;12.27;;;4.00;;
5153;SDS011;2595;53.584;10.084;2022-09-17T01:02:47;14.60;;;3.73;;
5153;SDS011;2595;53.584;10.084;2022-09-17T01:05:13;10.23;;;2.70;;
5153;SDS011;2595;53.584;10.084;2022-09-17T01:38:43;9.00;;;2.93;;
5153;SDS011;2595;53.584;10.084;2022-09-17T01:44:16;8.23;;;3.20;;
5153;SDS011;2595;53.584;10.084;2022-09-17T01:47:10;14.73;;;3.13;;
5153;SDS011;2595;53.584;10.084;2022-09-17T01:49:40;9.63;;;2.77;;
5153;SDS011;2595;53.584;10.084;2022-09-17T01:52:08;7.10;;;2.20;;
5153;SDS011;2595;53.584;10.084;2022-09-17T01:54:38;5.37;;;2.50;;
5153;SDS011;2595;53.584;10.084;2022-09-17T01:57:28;9.30;;;2.60;;
5153;SDS011;2595;53.584;10.084;2022-09-17T02:00:04;8.60;;;3.03;;
5153;SDS011;2595;53.584;10.084;2022-09-17T02:02:53;11.23;;;2.90;;
5153;SDS011;2595;53.584;10.084;2022-09-17T02:05:49;6.10;;;2.77;;
5153;SDS011;2595;53.584;10.084;2022-09-17T02:08:19;7.40;;;2.70;;
5153;SDS011;2595;53.584;10.084;2022-09-17T02:10:49;11.00;;;2.60;;
5153;SDS011;2595;53.584;10.084;2022-09-17T02:13:21;10.17;;;2.60;;
5153;SDS011;2595;53.584;10.084;2022-09-17T02:19:27;11.07;;;2.80;;
5153;SDS011;2595;53.584;10.084;2022-09-17T02:27:56;16.47;;;4.47;;
5153;SDS011;2595;53.584;10.084;2022-09-17T02:30:16;8.43;;;2.40;;
5153;SDS011;2595;53.584;10.084;2022-09-17T02:32:42;16.60;;;3.20;;
5153;SDS011;2595;53.584;10.084;2022-09-17T02:35:08;7.13;;;2.80;;
5153;SDS011;2595;53.584;10.084;2022-09-17T02:37:36;6.03;;;2.70;;
5153;SDS011;2595;53.584;10.084;2022-09-17T02:40:01;8.63;;;2.83;;
5153;SDS011;2595;53.584;10.084;2022-09-17T02:42:32;17.80;;;3.63;;
5153;SDS011;2595;53.584;10.084;2022-09-17T02:59:05;9.47;;;2.90;;
5153;SDS011;2595;53.584;10.084;2022-09-17T03:01:39;7.90;;;2.90;;
5153;SDS011;2595;53.584;10.084;2022-09-17T03:04:09;8.87;;;2.40;;
5153;SDS011;2595;53.584;10.084;2022-09-17T03:06:39;11.13;;;2.70;;
5153;SDS011;2595;53.584;10.084;2022-09-17T03:09:06;11.20;;;4.10;;
5153;SDS011;2595;53.584;10.084;2022-09-17T03:11:32;6.93;;;2.60;;
5153;SDS011;2595;53.584;10.084;2022-09-17T03:13:57;12.20;;;3.30;;
5153;SDS011;2595;53.584;10.084;2022-09-17T03:16:23;11.27;;;3.13;;
5153;SDS011;2595;53.584;10.084;2022-09-17T03:18:49;9.13;;;2.17;;
5153;SDS011;2595;53.584;10.084;2022-09-17T03:21:14;11.13;;;2.30;;
5153;SDS011;2595;53.584;10.084;2022-09-17T03:23:40;10.50;;;2.50;;
5153;SDS011;2595;53.584;10.084;2022-09-17T03:26:06;9.67;;;2.47;;
5153;SDS011;2595;53.584;10.084;2022-09-17T03:28:32;11.13;;;2.50;;
5153;SDS011;2595;53.584;10.084;2022-09-17T03:30:57;8.27;;;2.40;;
5153;SDS011;2595;53.584;10.084;2022-09-17T03:33:23;8.87;;;2.37;;
5153;SDS011;2595;53.584;10.084;2022-09-17T03:35:48;15.53;;;2.20;;
5153;SDS011;2595;53.584;10.084;2022-09-17T03:38:14;8.03;;;2.00;;
5153;SDS011;2595;53.584;10.084;2022-09-17T03:40:40;12.00;;;2.30;;
5153;SDS011;2595;53.584;10.084;2022-09-17T03:43:06;12.80;;;3.03;;
5153;SDS011;2595;53.584;10.084;2022-09-17T03:45:32;6.83;;;2.43;;
5153;SDS011;2595;53.584;10.084;2022-09-17T03:47:58;8.73;;;2.37;;
5153;SDS011;2595;53.584;10.084;2022-09-17T03:50:24;5.43;;;1.90;;
5153;SDS011;2595;53.584;10.084;2022-09-17T03:52:50;10.53;;;3.17;;
5153;SDS011;2595;53.584;10.084;2022-09-17T03:55:15;7.00;;;2.50;;
5153;SDS011;2595;53.584;10.084;2022-09-17T03:57:41;10.60;;;2.37;;
5153;SDS011;2595;53.584;10.084;2022-09-17T04:00:08;8.80;;;2.50;;
5153;SDS011;2595;53.584;10.084;2022-09-17T04:02:36;2.23;;;1.33;;
5153;SDS011;2595;53.584;10.084;2022-09-17T04:05:01;4.90;;;1.90;;
5153;SDS011;2595;53.584;10.084;2022-09-17T04:07:28;10.33;;;2.70;;
5153;SDS011;2595;53.584;10.084;2022-09-17T04:09:53;13.13;;;2.83;;
5153;SDS011;2595;53.584;10.084;2022-09-17T04:12:19;9.93;;;2.77;;
5153;SDS011;2595;53.584;10.084;2022-09-17T04:14:44;8.47;;;2.40;;
5153;SDS011;2595;53.584;10.084;2022-09-17T04:17:10;9.03;;;2.50;;
5153;SDS011;2595;53.584;10.084;2022-09-17T04:19:36;8.83;;;3.73;;
5153;SDS011;2595;53.584;10.084;2022-09-17T04:22:01;10.77;;;2.00;;
5153;SDS011;2595;53.584;10.084;2022-09-17T04:24:27;9.73;;;2.33;;
5153;SDS011;2595;53.584;10.084;2022-09-17T04:26:53;6.90;;;2.13;;
5153;SDS011;2595;53.584;10.084;2022-09-17T04:29:18;7.10;;;2.03;;
5153;SDS011;2595;53.584;10.084;2022-09-17T04:31:44;7.20;;;2.13;;
5153;SDS011;2595;53.584;10.084;2022-09-17T04:34:10;4.90;;;2.60;;
5153;SDS011;2595;53.584;10.084;2022-09-17T04:36:35;6.90;;;2.13;;
5153;SDS011;2595;53.584;10.084;2022-09-17T04:39:01;6.40;;;2.40;;
5153;SDS011;2595;53.584;10.084;2022-09-17T04:41:26;11.27;;;2.70;;
5153;SDS011;2595;53.584;10.084;2022-09-17T04:43:52;11.13;;;2.77;;
5153;SDS011;2595;53.584;10.084;2022-09-17T04:46:18;9.97;;;2.10;;
5153;SDS011;2595;53.584;10.084;2022-09-17T04:48:43;9.57;;;2.43;;
5153;SDS011;2595;53.584;10.084;2022-09-17T04:51:09;7.20;;;2.27;;
5153;SDS011;2595;53.584;10.084;2022-09-17T04:53:34;3.50;;;1.90;;
5153;SDS011;2595;53.584;10.084;2022-09-17T04:56:02;7.83;;;2.10;;
5153;SDS011;2595;53.584;10.084;2022-09-17T04:58:27;5.87;;;2.13;;
5153;SDS011;2595;53.584;10.084;2022-09-17T05:00:55;2.70;;;2.03;;
5153;SDS011;2595;53.584;10.084;2022-09-17T05:03:21;5.33;;;2.20;;
5153;SDS011;2595;53.584;10.084;2022-09-17T05:05:46;8.57;;;2.27;;
5153;SDS011;2595;53.584;10.084;2022-09-17T05:08:12;7.97;;;2.93;;
5153;SDS011;2595;53.584;10.084;2022-09-17T05:10:37;9.10;;;2.80;;
5153;SDS011;2595;53.584;10.084;2022-09-17T05:13:03;10.93;;;3.50;;
5153;SDS011;2595;53.584;10.084;2022-09-17T05:15:29;7.67;;;2.20;;
5153;SDS011;2595;53.584;10.084;2022-09-17T05:17:55;8.43;;;2.37;;
5153;SDS011;2595;53.584;10.084;2022-09-17T05:20:21;4.40;;;2.07;;
5153;SDS011;2595;53.584;10.084;2022-09-17T05:22:47;6.73;;;2.33;;
5153;SDS011;2595;53.584;10.084;2022-09-17T05:25:15;4.93;;;1.77;;
5153;SDS011;2595;53.584;10.084;2022-09-17T05:27:42;5.13;;;1.97;;
5153;SDS011;2595;53.584;10.084;2022-09-17T05:30:08;6.83;;;2.40;;
5153;SDS011;2595;53.584;10.084;2022-09-17T05:32:34;10.50;;;1.70;;
5153;SDS011;2595;53.584;10.084;2022-09-17T05:35:01;10.40;;;3.23;;
5153;SDS011;2595;53.584;10.084;2022-09-17T05:37:29;7.77;;;2.60;;
5153;SDS011;2595;53.584;10.084;2022-09-17T05:39:55;8.93;;;2.20;;
5153;SDS011;2595;53.584;10.084;2022-09-17T05:42:21;4.03;;;1.87;;
5153;SDS011;2595;53.584;10.084;2022-09-17T05:44:46;12.33;;;2.93;;
5153;SDS011;2595;53.584;10.084;2022-09-17T05:47:12;6.60;;;3.07;;
5153;SDS011;2595;53.584;10.084;2022-09-17T05:49:37;8.70;;;1.97;;
5153;SDS011;2595;53.584;10.084;2022-09-17T05:52:03;10.03;;;2.27;;
5153;SDS011;2595;53.584;10.084;2022-09-17T05:54:29;8.03;;;2.33;;
5153;SDS011;2595;53.584;10.084;2022-09-17T05:56:55;7.30;;;2.60;;
5153;SDS011;2595;53.584;10.084;2022-09-17T05:59:20;7.20;;;2.33;;
5153;SDS011;2595;53.584;10.084;2022-09-17T06:01:46;4.13;;;2.33;;
5153;SDS011;2595;53.584;10.084;2022-09-17T06:04:12;5.90;;;2.07;;
5153;SDS011;2595;53.584;10.084;2022-09-17T06:06:38;10.70;;;2.67;;
5153;SDS011;2595;53.584;10.084;2022-09-17T06:09:05;11.23;;;3.17;;
5153;SDS011;2595;53.584;10.084;2022-09-17T06:11:32;4.17;;;2.30;;
5153;SDS011;2595;53.584;10.084;2022-09-17T06:13:58;10.60;;;2.90;;
5153;SDS011;2595;53.584;10.084;2022-09-17T06:16:24;9.07;;;3.20;;
5153;SDS011;2595;53.584;10.084;2022-09-17T06:18:50;5.80;;;2.10;;
5153;SDS011;2595;53.584;10.084;2022-09-17T06:21:19;12.13;;;2.00;;
5153;SDS011;2595;53.584;10.084;2022-09-17T06:23:50;5.70;;;1.97;;
5153;SDS011;2595;53.584;10.084;2022-09-17T06:26:16;11.73;;;2.70;;
5153;SDS011;2595;53.584;10.084;2022-09-17T06:28:42;5.77;;;2.10;;
5153;SDS011;2595;53.584;10.084;2022-09-17T06:31:09;11.07;;;2.10;;
5153;SDS011;2595;53.584;10.084;2022-09-17T06:33:36;6.00;;;2.60;;
5153;SDS011;2595;53.584;10.084;2022-09-17T06:36:03;4.37;;;2.03;;
5153;SDS011;2595;53.584;10.084;2022-09-17T06:38:31;11.00;;;2.70;;
5153;SDS011;2595;53.584;10.084;2022-09-17T06:40:58;9.63;;;2.23;;
5153;SDS011;2595;53.584;10.084;2022-09-17T06:43:24;7.90;;;1.67;;
5153;SDS011;2595;53.584;10.084;2022-09-17T06:45:54;8.03;;;2.10;;
5153;SDS011;2595;53.584;10.084;2022-09-17T06:48:21;12.70;;;2.43;;
5153;SDS011;2595;53.584;10.084;2022-09-17T06:50:48;5.30;;;2.50;;
5153;SDS011;2595;53.584;10.084;2022-09-17T06:53:14;8.80;;;1.47;;
5153;SDS011;2595;53.584;10.084;2022-09-17T06:55:40;3.33;;;2.30;;
5153;SDS011;2595;53.584;10.084;2022-09-17T06:58:05;4.03;;;1.40;;
5153;SDS011;2595;53.584;10.084;2022-09-17T07:00:31;7.80;;;1.90;;
5153;SDS011;2595;53.584;10.084;2022-09-17T07:02:57;4.73;;;1.43;;
5153;SDS011;2595;53.584;10.084;2022-09-17T07:05:24;7.47;;;2.30;;
5153;SDS011;2595;53.584;10.084;2022-09-17T07:07:50;5.93;;;2.30;;
5153;SDS011;2595;53.584;10.084;2022-09-17T07:10:16;2.60;;;2.07;;
5153;SDS011;2595;53.584;10.084;2022-09-17T07:12:42;5.60;;;1.93;;
5153;SDS011;2595;53.584;10.084;2022-09-17T07:15:07;2.90;;;1.20;;
5153;SDS011;2595;53.584;10.084;2022-09-17T07:17:37;10.73;;;1.40;;
5153;SDS011;2595;53.584;10.084;2022-09-17T07:20:04;8.60;;;2.07;;
5153;SDS011;2595;53.584;10.084;2022-09-17T07:22:31;8.53;;;2.20;;
5153;SDS011;2595;53.584;10.084;2022-09-17T07:24:57;9.20;;;5.27;;
5153;SDS011;2595;53.584;10.084;2022-09-17T07:27:22;6.43;;;2.60;;
5153;SDS011;2595;53.584;10.084;2022-09-17T07:29:50;5.60;;;1.10;;
5153;SDS011;2595;53.584;10.084;2022-09-17T07:32:16;4.20;;;1.47;;
5153;SDS011;2595;53.584;10.084;2022-09-17T07:34:41;6.40;;;1.50;;
5153;SDS011;2595;53.584;10.084;2022-09-17T07:37:07;3.97;;;1.00;;
5153;SDS011;2595;53.584;10.084;2022-09-17T07:39:33;10.37;;;1.60;;
5153;SDS011;2595;53.584;10.084;2022-09-17T07:41:58;1.80;;;1.00;;
5153;SDS011;2595;53.584;10.084;2022-09-17T07:44:24;3.00;;;1.20;;
5153;SDS011;2595;53.584;10.084;2022-09-17T07:46:50;6.50;;;1.60;;
5153;SDS011;2595;53.584;10.084;2022-09-17T07:49:15;2.70;;;1.00;;
5153;SDS011;2595;53.584;10.084;2022-09-17T07:51:41;2.93;;;1.47;;
5153;SDS011;2595;53.584;10.084;2022-09-17T07:54:06;3.73;;;1.20;;
5153;SDS011;2595;53.584;10.084;2022-09-17T07:56:32;2.20;;;1.60;;
5153;SDS011;2595;53.584;10.084;2022-09-17T07:58:58;4.53;;;1.80;;
5153;SDS011;2595;53.584;10.084;2022-09-17T08:01:25;3.07;;;1.30;;
5153;SDS011;2595;53.584;10.084;2022-09-17T08:03:52;3.37;;;1.30;;
5153;SDS011;2595;53.584;10.084;2022-09-17T08:06:19;3.93;;;1.13;;
5153;SDS011;2595;53.584;10.084;2022-09-17T08:08:47;2.10;;;1.00;;
5153;SDS011;2595;53.584;10.084;2022-09-17T08:11:14;2.80;;;1.30;;
5153;SDS011;2595;53.584;10.084;2022-09-17T08:13:48;1.50;;;1.10;;
5153;SDS011;2595;53.584;10.084;2022-09-17T08:16:14;6.37;;;1.40;;
5153;SDS011;2595;53.584;10.084;2022-09-17T08:18:41;1.67;;;1.40;;
5153;SDS011;2595;53.584;10.084;2022-09-17T08:21:09;3.70;;;1.60;;
5153;SDS011;2595;53.584;10.084;2022-09-17T08:23:36;8.30;;;2.57;;
5153;SDS011;2595;53.584;10.084;2022-09-17T08:26:03;6.50;;;1.87;;
5153;SDS011;2595;53.584;10.084;2022-09-17T08:28:32;3.07;;;1.30;;
5153;SDS011;2595;53.584;10.084;2022-09-17T08:30:59;3.60;;;1.50;;
5153;SDS011;2595;53.584;10.084;2022-09-17T08:33:29;5.03;;;1.60;;
5153;SDS011;2595;53.584;10.084;2022-09-17T08:35:56;4.03;;;1.83;;
5153;SDS011;2595;53.584;10.084;2022-09-17T08:38:28;6.00;;;2.17;;
5153;SDS011;2595;53.584;10.084;2022-09-17T08:43:22;9.23;;;1.67;;
5153;SDS011;2595;53.584;10.084;2022-09-17T08:45:53;5.00;;;1.40;;
5153;SDS011;2595;53.584;10.084;2022-09-17T08:48:20;6.53;;;2.00;;
5153;SDS011;2595;53.584;10.084;2022-09-17T08:50:49;3.30;;;2.13;;
5153;SDS011;2595;53.584;10.084;2022-09-17T08:53:25;12.63;;;2.70;;
5153;SDS011;2595;53.584;10.084;2022-09-17T09:01:31;4.00;;;1.73;;
5153;SDS011;2595;53.584;10.084;2022-09-17T09:07:07;3.70;;;1.20;;
5153;SDS011;2595;53.584;10.084;2022-09-17T09:09:38;3.90;;;1.63;;
5153;SDS011;2595;53.584;10.084;2022-09-17T09:12:21;8.50;;;1.50;;
5153;SDS011;2595;53.584;10.084;2022-09-17T09:14:51;2.80;;;1.27;;
5153;SDS011;2595;53.584;10.084;2022-09-17T09:17:23;10.30;;;2.13;;
5153;SDS011;2595;53.584;10.084;2022-09-17T09:19:53;6.00;;;1.60;;
5153;SDS011;2595;53.584;10.084;2022-09-17T09:22:32;2.70;;;1.20;;
5153;SDS011;2595;53.584;10.084;2022-09-17T09:25:05;7.27;;;1.47;;
5153;SDS011;2595;53.584;10.084;2022-09-17T09:27:50;4.63;;;0.90;;
5153;SDS011;2595;53.584;10.084;2022-09-17T09:30:21;2.97;;;1.10;;
5153;SDS011;2595;53.584;10.084;2022-09-17T09:35:25;6.30;;;2.23;;
5153;SDS011;2595;53.584;10.084;2022-09-17T09:43:10;2.70;;;1.40;;
5153;SDS011;2595;53.584;10.084;2022-09-17T09:53:48;2.97;;;1.00;;
5153;SDS011;2595;53.584;10.084;2022-09-17T09:59:11;2.10;;;0.80;;
5153;SDS011;2595;53.584;10.084;2022-09-17T10:01:40;1.77;;;1.07;;
5153;SDS011;2595;53.584;10.084;2022-09-17T10:04:22;2.23;;;0.80;;
5153;SDS011;2595;53.584;10.084;2022-09-17T10:07:02;0.70;;;0.70;;
5153;SDS011;2595;53.584;10.084;2022-09-17T10:09:30;0.90;;;0.80;;
5153;SDS011;2595;53.584;10.084;2022-09-17T10:14:26;2.33;;;0.80;;
5153;SDS011;2595;53.584;10.084;2022-09-17T10:17:09;1.43;;;1.00;;
5153;SDS011;2595;53.584;10.084;2022-09-17T10:19:43;3.33;;;1.07;;
5153;SDS011;2595;53.584;10.084;2022-09-17T10:22:17;1.23;;;0.80;;
5153;SDS011;2595;53.584;10.084;2022-09-17T10:24:50;1.40;;;0.80;;
5153;SDS011;2595;53.584;10.084;2022-09-17T10:27:17;4.27;;;1.40;;
5153;SDS011;2595;53.584;10.084;2022-09-17T10:29:46;3.10;;;1.20;;
5153;SDS011;2595;53.584;10.084;2022-09-17T10:32:17;3.13;;;1.00;;
5153;SDS011;2595;53.584;10.084;2022-09-17T10:37:31;5.17;;;1.47;;
5153;SDS011;2595;53.584;10.084;2022-09-17T10:40:00;3.90;;;1.60;;
5153;SDS011;2595;53.584;10.084;2022-09-17T10:42:26;2.43;;;1.10;;
5153;SDS011;2595;53.584;10.084;2022-09-17T10:44:58;2.10;;;1.00;;
5153;SDS011;2595;53.584;10.084;2022-09-17T10:47:25;1.33;;;1.20;;
5153;SDS011;2595;53.584;10.084;2022-09-17T10:52:40;4.30;;;1.73;;
5153;SDS011;2595;53.584;10.084;2022-09-17T10:55:32;2.90;;;1.23;;
5153;SDS011;2595;53.584;10.084;2022-09-17T11:00:37;2.70;;;1.33;;
5153;SDS011;2595;53.584;10.084;2022-09-17T11:20:07;5.30;;;1.70;;
5153;SDS011;2595;53.584;10.084;2022-09-17T11:28:29;3.90;;;1.20;;
5153;SDS011;2595;53.584;10.084;2022-09-17T11:34:08;3.90;;;1.57;;
5153;SDS011;2595;53.584;10.084;2022-09-17T11:37:08;5.73;;;1.30;;
5153;SDS011;2595;53.584;10.084;2022-09-17T11:39:40;4.83;;;1.63;;
5153;SDS011;2595;53.584;10.084;2022-09-17T11:42:21;10.97;;;1.43;;
5153;SDS011;2595;53.584;10.084;2022-09-17T11:44:53;3.73;;;1.70;;
5153;SDS011;2595;53.584;10.084;2022-09-17T11:47:24;2.50;;;1.00;;
5153;SDS011;2595;53.584;10.084;2022-09-17T11:52:44;6.00;;;1.53;;
5153;SDS011;2595;53.584;10.084;2022-09-17T11:55:26;2.83;;;1.40;;
5153;SDS011;2595;53.584;10.084;2022-09-17T11:58:25;5.00;;;1.20;;
5153;SDS011;2595;53.584;10.084;2022-09-17T12:01:08;4.00;;;1.33;;
5153;SDS011;2595;53.584;10.084;2022-09-17T12:03:57;1.47;;;1.00;;
5153;SDS011;2595;53.584;10.084;2022-09-17T12:09:27;2.93;;;1.90;;
5153;SDS011;2595;53.584;10.084;2022-09-17T12:12:05;2.07;;;1.20;;
5153;SDS011;2595;53.584;10.084;2022-09-17T12:14:57;2.10;;;1.70;;
5153;SDS011;2595;53.584;10.084;2022-09-17T12:17:36;3.90;;;1.63;;
5153;SDS011;2595;53.584;10.084;2022-09-17T12:20:07;5.70;;;1.80;;
5153;SDS011;2595;53.584;10.084;2022-09-17T12:22:45;4.80;;;1.20;;
5153;SDS011;2595;53.584;10.084;2022-09-17T12:25:13;7.10;;;1.73;;
5153;SDS011;2595;53.584;10.084;2022-09-17T12:27:53;3.13;;;1.70;;
5153;SDS011;2595;53.584;10.084;2022-09-17T12:31:30;6.47;;;1.90;;
5153;SDS011;2595;53.584;10.084;2022-09-17T12:36:17;2.13;;;1.33;;
5153;SDS011;2595;53.584;10.084;2022-09-17T12:40:02;2.37;;;1.50;;
5153;SDS011;2595;53.584;10.084;2022-09-17T12:42:06;8.67;;;1.80;;
5153;SDS011;2595;53.584;10.084;2022-09-17T12:50:11;4.60;;;1.77;;
5153;SDS011;2595;53.584;10.084;2022-09-17T12:52:59;10.13;;;2.27;;
5153;SDS011;2595;53.584;10.084;2022-09-17T12:58:50;8.60;;;2.00;;
5153;SDS011;2595;53.584;10.084;2022-09-17T13:16:16;6.07;;;1.53;;
5153;SDS011;2595;53.584;10.084;2022-09-17T13:22:04;3.90;;;1.70;;
5153;SDS011;2595;53.584;10.084;2022-09-17T13:24:20;2.60;;;1.73;;
5153;SDS011;2595;53.584;10.084;2022-09-17T13:26:49;3.80;;;2.10;;
5153;SDS011;2595;53.584;10.084;2022-09-17T13:37:34;3.53;;;2.07;;
5153;SDS011;2595;53.584;10.084;2022-09-17T13:40:18;2.97;;;1.80;;
5153;SDS011;2595;53.584;10.084;2022-09-17T13:45:32;4.67;;;1.63;;
5153;SDS011;2595;53.584;10.084;2022-09-17T13:48:19;6.70;;;1.67;;
5153;SDS011;2595;53.584;10.084;2022-09-17T13:50:47;1.60;;;1.27;;
5153;SDS011;2595;53.584;10.084;2022-09-17T13:55:49;2.67;;;1.30;;
5153;SDS011;2595;53.584;10.084;2022-09-17T14:10:58;3.33;;;1.50;;
5153;SDS011;2595;53.584;10.084;2022-09-17T14:13:46;3.13;;;1.60;;
5153;SDS011;2595;53.584;10.084;2022-09-17T14:16:30;5.30;;;1.77;;
5153;SDS011;2595;53.584;10.084;2022-09-17T14:21:29;2.60;;;1.07;;
5153;SDS011;2595;53.584;10.084;2022-09-17T14:24:02;2.20;;;2.00;;
5153;SDS011;2595;53.584;10.084;2022-09-17T14:29:34;2.97;;;0.83;;
5153;SDS011;2595;53.584;10.084;2022-09-17T14:32:06;1.27;;;0.90;;
5153;SDS011;2595;53.584;10.084;2022-09-17T14:34:35;2.47;;;1.10;;
5153;SDS011;2595;53.584;10.084;2022-09-17T14:37:01;2.70;;;1.07;;
5153;SDS011;2595;53.584;10.084;2022-09-17T14:39:28;2.20;;;1.10;;
5153;SDS011;2595;53.584;10.084;2022-09-17T14:42:01;2.43;;;1.57;;
5153;SDS011;2595;53.584;10.084;2022-09-17T14:44:31;1.20;;;1.10;;
5153;SDS011;2595;53.584;10.084;2022-09-17T14:49:25;1.30;;;1.20;;
5153;SDS011;2595;53.584;10.084;2022-09-17T14:51:58;1.27;;;1.10;;
5153;SDS011;2595;53.584;10.084;2022-09-17T14:56:53;1.90;;;1.00;;
5153;SDS011;2595;53.584;10.084;2022-09-17T14:59:36;1.77;;;0.80;;
5153;SDS011;2595;53.584;10.084;2022-09-17T15:05:22;1.33;;;1.00;;
5153;SDS011;2595;53.584;10.084;2022-09-17T15:10:44;4.60;;;2.03;;
5153;SDS011;2595;53.584;10.084;2022-09-17T15:13:12;1.40;;;1.17;;
5153;SDS011;2595;53.584;10.084;2022-09-17T15:15:49;2.40;;;1.00;;
5153;SDS011;2595;53.584;10.084;2022-09-17T15:18:32;2.13;;;1.40;;
5153;SDS011;2595;53.584;10.084;2022-09-17T15:21:05;1.73;;;1.10;;
5153;SDS011;2595;53.584;10.084;2022-09-17T15:23:42;2.70;;;1.20;;
5153;SDS011;2595;53.584;10.084;2022-09-17T15:26:09;6.63;;;1.33;;
5153;SDS011;2595;53.584;10.084;2022-09-17T15:28:38;1.30;;;1.20;;
5153;SDS011;2595;53.584;10.084;2022-09-17T15:31:17;2.30;;;1.20;;
5153;SDS011;2595;53.584;10.084;2022-09-17T15:33:44;3.40;;;1.10;;
5153;SDS011;2595;53.584;10.084;2022-09-17T15:36:23;2.47;;;1.00;;
5153;SDS011;2595;53.584;10.084;2022-09-17T15:38:51;5.60;;;1.20;;
5153;SDS011;2595;53.584;10.084;2022-09-17T15:41:20;2.13;;;1.47;;
5153;SDS011;2595;53.584;10.084;2022-09-17T15:44:14;4.30;;;1.57;;
5153;SDS011;2595;53.584;10.084;2022-09-17T15:46:46;2.80;;;1.30;;
5153;SDS011;2595;53.584;10.084;2022-09-17T15:49:31;1.40;;;1.00;;
5153;SDS011;2595;53.584;10.084;2022-09-17T15:54:48;1.17;;;1.07;;
5153;SDS011;2595;53.584;10.084;2022-09-17T15:57:14;3.17;;;1.23;;
5153;SDS011;2595;53.584;10.084;2022-09-17T15:59:41;1.20;;;0.93;;
5153;SDS011;2595;53.584;10.084;2022-09-17T16:02:08;1.90;;;1.33;;
5153;SDS011;2595;53.584;10.084;2022-09-17T16:04:56;2.03;;;1.40;;
5153;SDS011;2595;53.584;10.084;2022-09-17T16:07:38;2.27;;;1.57;;
5153;SDS011;2595;53.584;10.084;2022-09-17T16:10:04;3.13;;;1.20;;
5153;SDS011;2595;53.584;10.084;2022-09-17T16:12:30;1.80;;;1.20;;
5153;SDS011;2595;53.584;10.084;2022-09-17T16:14:57;1.60;;;1.50;;
5153;SDS011;2595;53.584;10.084;2022-09-17T16:17:29;3.43;;;1.20;;
5153;SDS011;2595;53.584;10.084;2022-09-17T16:20:04;3.50;;;1.53;;
5153;SDS011;2595;53.584;10.084;2022-09-17T16:22:32;1.53;;;1.13;;
5153;SDS011;2595;53.584;10.084;2022-09-17T16:24:58;1.10;;;0.90;;
5153;SDS011;2595;53.584;10.084;2022-09-17T16:27:25;3.43;;;0.97;;
5153;SDS011;2595;53.584;10.084;2022-09-17T16:29:56;1.70;;;1.40;;
5153;SDS011;2595;53.584;10.084;2022-09-17T16:32:28;0.90;;;0.80;;
5153;SDS011;2595;53.584;10.084;2022-09-17T16:34:54;1.57;;;1.10;;
5153;SDS011;2595;53.584;10.084;2022-09-17T16:37:20;2.90;;;1.20;;
5153;SDS011;2595;53.584;10.084;2022-09-17T16:39:45;1.87;;;1.43;;
5153;SDS011;2595;53.584;10.084;2022-09-17T16:42:11;4.40;;;2.00;;
5153;SDS011;2595;53.584;10.084;2022-09-17T16:44:36;1.70;;;1.50;;
5153;SDS011;2595;53.584;10.084;2022-09-17T16:47:02;1.20;;;1.10;;
5153;SDS011;2595;53.584;10.084;2022-09-17T16:49:27;2.40;;;1.10;;
5153;SDS011;2595;53.584;10.084;2022-09-17T16:51:53;5.10;;;1.73;;
5153;SDS011;2595;53.584;10.084;2022-09-17T16:54:18;3.17;;;1.30;;
5153;SDS011;2595;53.584;10.084;2022-09-17T16:56:44;1.43;;;1.23;;
5153;SDS011;2595;53.584;10.084;2022-09-17T16:59:10;1.70;;;1.10;;
5153;SDS011;2595;53.584;10.084;2022-09-17T17:01:35;1.83;;;1.10;;
5153;SDS011;2595;53.584;10.084;2022-09-17T17:04:02;2.63;;;1.60;;
5153;SDS011;2595;53.584;10.084;2022-09-17T17:06:27;1.10;;;1.00;;
5153;SDS011;2595;53.584;10.084;2022-09-17T17:08:53;1.00;;;0.90;;
5153;SDS011;2595;53.584;10.084;2022-09-17T17:11:19;3.00;;;1.30;;
5153;SDS011;2595;53.584;10.084;2022-09-17T17:13:45;1.50;;;1.20;;
5153;SDS011;2595;53.584;10.084;2022-09-17T17:16:12;0.90;;;0.90;;
5153;SDS011;2595;53.584;10.084;2022-09-17T17:18:42;2.07;;;1.23;;
5153;SDS011;2595;53.584;10.084;2022-09-17T17:21:09;1.60;;;1.13;;
5153;SDS011;2595;53.584;10.084;2022-09-17T17:23:36;2.40;;;1.83;;
5153;SDS011;2595;53.584;10.084;2022-09-17T17:26:02;3.97;;;1.50;;
5153;SDS011;2595;53.584;10.084;2022-09-17T17:28:31;1.93;;;1.33;;
5153;SDS011;2595;53.584;10.084;2022-09-17T17:30:58;2.50;;;1.73;;
5153;SDS011;2595;53.584;10.084;2022-09-17T17:33:24;2.60;;;1.67;;
5153;SDS011;2595;53.584;10.084;2022-09-17T17:35:50;1.53;;;1.43;;
5153;SDS011;2595;53.584;10.084;2022-09-17T17:38:16;5.33;;;1.47;;
5153;SDS011;2595;53.584;10.084;2022-09-17T17:40:42;3.57;;;1.50;;
5153;SDS011;2595;53.584;10.084;2022-09-17T17:43:09;1.73;;;1.57;;
5153;SDS011;2595;53.584;10.084;2022-09-17T17:45:35;3.83;;;1.40;;
5153;SDS011;2595;53.584;10.084;2022-09-17T17:48:02;3.37;;;1.90;;
5153;SDS011;2595;53.584;10.084;2022-09-17T17:50:28;2.47;;;1.80;;
5153;SDS011;2595;53.584;10.084;2022-09-17T17:52:54;2.23;;;1.90;;
5153;SDS011;2595;53.584;10.084;2022-09-17T17:55:19;3.50;;;1.60;;
5153;SDS011;2595;53.584;10.084;2022-09-17T17:57:45;1.63;;;1.53;;
5153;SDS011;2595;53.584;10.084;2022-09-17T18:00:11;1.90;;;1.27;;
5153;SDS011;2595;53.584;10.084;2022-09-17T18:02:38;1.47;;;1.37;;
5153;SDS011;2595;53.584;10.084;2022-09-17T18:05:04;2.13;;;1.60;;
5153;SDS011;2595;53.584;10.084;2022-09-17T18:07:30;4.03;;;1.87;;
5153;SDS011;2595;53.584;10.084;2022-09-17T18:09:56;2.03;;;1.50;;
5153;SDS011;2595;53.584;10.084;2022-09-17T18:12:21;2.80;;;1.83;;
5153;SDS011;2595;53.584;10.084;2022-09-17T18:14:47;3.93;;;1.73;;
5153;SDS011;2595;53.584;10.084;2022-09-17T18:17:13;1.70;;;1.10;;
5153;SDS011;2595;53.584;10.084;2022-09-17T18:19:38;2.50;;;1.70;;
5153;SDS011;2595;53.584;10.084;2022-09-17T18:22:04;5.13;;;1.57;;
5153;SDS011;2595;53.584;10.084;2022-09-17T18:24:29;1.50;;;1.40;;
5153;SDS011;2595;53.584;10.084;2022-09-17T18:26:55;2.40;;;1.47;;
5153;SDS011;2595;53.584;10.084;2022-09-17T18:29:21;2.10;;;1.20;;
5153;SDS011;2595;53.584;10.084;2022-09-17T18:31:46;1.10;;;1.00;;
5153;SDS011;2595;53.584;10.084;2022-09-17T18:34:13;2.40;;;1.50;;
5153;SDS011;2595;53.584;10.084;2022-09-17T18:36:40;4.20;;;1.77;;